sensor_id;sensor_type;location;lat;lon;timestamp;temperature;humidity
80274;DHT22;69576;51.902;-8.462;2024-03-06T00:02:05;12.90;71.80
80274;DHT22;69576;51.902;-8.462;2024-03-06T00:04:31;12.90;71.90
80274;DHT22;69576;51.902;-8.462;2024-03-06T00:06:57;12.80;72.20
80274;DHT22;69576;51.902;-8.462;2024-03-06T00:09:23;12.80;72.10
80274;DHT22;69576;51.902;-8.462;2024-03-06T00:11:53;12.90;71.90
80274;DHT22;69576;51.902;-8.462;2024-03-06T00:14:19;12.80;72.00
80274;DHT22;69576;51.902;-8.462;2024-03-06T00:16:45;12.80;72.20
80274;DHT22;69576;51.902;-8.462;2024-03-06T00:19:11;12.80;72.20
80274;DHT22;69576;51.902;-8.462;2024-03-06T00:21:37;12.80;72.30
80274;DHT22;69576;51.902;-8.462;2024-03-06T00:24:03;12.80;72.30
80274;DHT22;69576;51.902;-8.462;2024-03-06T00:26:32;12.80;72.20
80274;DHT22;69576;51.902;-8.462;2024-03-06T00:28:57;12.80;72.20
80274;DHT22;69576;51.902;-8.462;2024-03-06T00:31:25;12.80;72.10
80274;DHT22;69576;51.902;-8.462;2024-03-06T00:33:51;12.80;72.00
80274;DHT22;69576;51.902;-8.462;2024-03-06T00:36:19;12.70;72.30
80274;DHT22;69576;51.902;-8.462;2024-03-06T00:38:45;12.70;72.50
80274;DHT22;69576;51.902;-8.462;2024-03-06T00:41:11;12.80;72.50
80274;DHT22;69576;51.902;-8.462;2024-03-06T00:43:39;12.80;72.40
80274;DHT22;69576;51.902;-8.462;2024-03-06T00:46:05;12.70;72.60
80274;DHT22;69576;51.902;-8.462;2024-03-06T00:48:31;12.70;72.70
80274;DHT22;69576;51.902;-8.462;2024-03-06T00:50:56;12.80;72.30
80274;DHT22;69576;51.902;-8.462;2024-03-06T00:53:22;12.70;72.50
80274;DHT22;69576;51.902;-8.462;2024-03-06T00:55:48;12.70;72.70
80274;DHT22;69576;51.902;-8.462;2024-03-06T00:58:13;12.70;72.50
80274;DHT22;69576;51.902;-8.462;2024-03-06T01:00:39;12.70;72.30
80274;DHT22;69576;51.902;-8.462;2024-03-06T01:03:05;12.70;72.30
80274;DHT22;69576;51.902;-8.462;2024-03-06T01:05:31;12.70;72.10
80274;DHT22;69576;51.902;-8.462;2024-03-06T01:07:58;12.70;72.20
80274;DHT22;69576;51.902;-8.462;2024-03-06T01:10:24;12.70;72.60
80274;DHT22;69576;51.902;-8.462;2024-03-06T01:12:50;12.70;72.80
80274;DHT22;69576;51.902;-8.462;2024-03-06T01:15:16;12.70;72.70
80274;DHT22;69576;51.902;-8.462;2024-03-06T01:17:42;12.70;72.50
80274;DHT22;69576;51.902;-8.462;2024-03-06T01:20:08;12.70;73.00
80274;DHT22;69576;51.902;-8.462;2024-03-06T01:22:34;12.70;72.70
80274;DHT22;69576;51.902;-8.462;2024-03-06T01:25:00;12.70;72.60
80274;DHT22;69576;51.902;-8.462;2024-03-06T01:27:27;12.70;72.80
80274;DHT22;69576;51.902;-8.462;2024-03-06T01:29:53;12.70;72.30
80274;DHT22;69576;51.902;-8.462;2024-03-06T01:32:19;12.70;72.40
80274;DHT22;69576;51.902;-8.462;2024-03-06T01:34:47;12.70;72.40
80274;DHT22;69576;51.902;-8.462;2024-03-06T01:37:13;12.70;72.40
80274;DHT22;69576;51.902;-8.462;2024-03-06T01:39:38;12.60;72.70
80274;DHT22;69576;51.902;-8.462;2024-03-06T01:42:04;12.70;72.80
80274;DHT22;69576;51.902;-8.462;2024-03-06T01:44:30;12.70;72.70
80274;DHT22;69576;51.902;-8.462;2024-03-06T01:46:56;12.70;72.60
80274;DHT22;69576;51.902;-8.462;2024-03-06T01:49:22;12.70;72.40
80274;DHT22;69576;51.902;-8.462;2024-03-06T01:51:51;12.60;72.70
80274;DHT22;69576;51.902;-8.462;2024-03-06T01:54:18;12.70;72.80
80274;DHT22;69576;51.902;-8.462;2024-03-06T01:56:46;12.60;72.70
80274;DHT22;69576;51.902;-8.462;2024-03-06T01:59:13;12.60;72.60
80274;DHT22;69576;51.902;-8.462;2024-03-06T02:01:40;12.60;72.50
80274;DHT22;69576;51.902;-8.462;2024-03-06T02:04:08;12.60;72.90
80274;DHT22;69576;51.902;-8.462;2024-03-06T02:06:39;12.50;72.50
80274;DHT22;69576;51.902;-8.462;2024-03-06T02:09:05;12.50;72.80
80274;DHT22;69576;51.902;-8.462;2024-03-06T02:11:32;12.50;72.90
80274;DHT22;69576;51.902;-8.462;2024-03-06T02:13:58;12.50;72.90
80274;DHT22;69576;51.902;-8.462;2024-03-06T02:16:24;12.50;72.90
80274;DHT22;69576;51.902;-8.462;2024-03-06T02:18:54;12.50;73.00
80274;DHT22;69576;51.902;-8.462;2024-03-06T02:21:24;12.50;73.40
80274;DHT22;69576;51.902;-8.462;2024-03-06T02:23:50;12.50;73.20
80274;DHT22;69576;51.902;-8.462;2024-03-06T02:26:20;12.50;73.10
80274;DHT22;69576;51.902;-8.462;2024-03-06T02:28:50;12.50;73.50
80274;DHT22;69576;51.902;-8.462;2024-03-06T02:31:17;12.50;73.60
80274;DHT22;69576;51.902;-8.462;2024-03-06T02:33:47;12.50;73.30
80274;DHT22;69576;51.902;-8.462;2024-03-06T02:36:14;12.60;73.30
80274;DHT22;69576;51.902;-8.462;2024-03-06T02:38:40;12.50;73.70
80274;DHT22;69576;51.902;-8.462;2024-03-06T02:41:06;12.60;73.60
80274;DHT22;69576;51.902;-8.462;2024-03-06T02:43:35;12.50;73.40
80274;DHT22;69576;51.902;-8.462;2024-03-06T02:46:02;12.60;73.40
80274;DHT22;69576;51.902;-8.462;2024-03-06T02:48:28;12.60;73.30
80274;DHT22;69576;51.902;-8.462;2024-03-06T02:50:55;12.50;73.40
80274;DHT22;69576;51.902;-8.462;2024-03-06T02:53:21;12.50;73.50
80274;DHT22;69576;51.902;-8.462;2024-03-06T02:55:47;12.50;73.70
80274;DHT22;69576;51.902;-8.462;2024-03-06T02:58:13;12.50;73.50
80274;DHT22;69576;51.902;-8.462;2024-03-06T03:00:42;12.50;73.50
80274;DHT22;69576;51.902;-8.462;2024-03-06T03:03:08;12.50;73.70
80274;DHT22;69576;51.902;-8.462;2024-03-06T03:05:33;12.50;73.90
80274;DHT22;69576;51.902;-8.462;2024-03-06T03:07:59;12.50;73.90
80274;DHT22;69576;51.902;-8.462;2024-03-06T03:10:25;12.50;73.70
80274;DHT22;69576;51.902;-8.462;2024-03-06T03:12:52;12.50;74.10
80274;DHT22;69576;51.902;-8.462;2024-03-06T03:15:18;12.50;73.90
80274;DHT22;69576;51.902;-8.462;2024-03-06T03:17:44;12.50;74.00
80274;DHT22;69576;51.902;-8.462;2024-03-06T03:20:10;12.50;74.30
80274;DHT22;69576;51.902;-8.462;2024-03-06T03:22:40;12.50;74.10
80274;DHT22;69576;51.902;-8.462;2024-03-06T03:25:12;12.50;74.40
80274;DHT22;69576;51.902;-8.462;2024-03-06T03:27:39;12.50;74.30
80274;DHT22;69576;51.902;-8.462;2024-03-06T03:30:10;12.50;74.40
80274;DHT22;69576;51.902;-8.462;2024-03-06T03:32:36;12.50;74.30
80274;DHT22;69576;51.902;-8.462;2024-03-06T03:35:05;12.50;74.70
80274;DHT22;69576;51.902;-8.462;2024-03-06T03:37:32;12.50;74.60
80274;DHT22;69576;51.902;-8.462;2024-03-06T03:39:57;12.50;74.60
80274;DHT22;69576;51.902;-8.462;2024-03-06T03:42:23;12.50;74.80
80274;DHT22;69576;51.902;-8.462;2024-03-06T03:44:49;12.50;74.70
80274;DHT22;69576;51.902;-8.462;2024-03-06T03:47:14;12.60;74.40
80274;DHT22;69576;51.902;-8.462;2024-03-06T03:49:40;12.50;74.80
80274;DHT22;69576;51.902;-8.462;2024-03-06T03:52:06;12.60;75.00
80274;DHT22;69576;51.902;-8.462;2024-03-06T03:54:32;12.60;74.50
80274;DHT22;69576;51.902;-8.462;2024-03-06T03:56:58;12.60;74.70
80274;DHT22;69576;51.902;-8.462;2024-03-06T03:59:25;12.60;74.80
80274;DHT22;69576;51.902;-8.462;2024-03-06T04:01:51;12.60;74.70
80274;DHT22;69576;51.902;-8.462;2024-03-06T04:04:17;12.60;74.90
80274;DHT22;69576;51.902;-8.462;2024-03-06T04:06:43;12.60;74.60
80274;DHT22;69576;51.902;-8.462;2024-03-06T04:09:08;12.70;74.90
80274;DHT22;69576;51.902;-8.462;2024-03-06T04:11:36;12.60;74.90
80274;DHT22;69576;51.902;-8.462;2024-03-06T04:14:04;12.60;74.90
80274;DHT22;69576;51.902;-8.462;2024-03-06T04:16:29;12.60;75.00
80274;DHT22;69576;51.902;-8.462;2024-03-06T04:18:56;12.60;75.00
80274;DHT22;69576;51.902;-8.462;2024-03-06T04:21:22;12.60;74.70
80274;DHT22;69576;51.902;-8.462;2024-03-06T04:23:48;12.60;74.90
80274;DHT22;69576;51.902;-8.462;2024-03-06T04:26:14;12.70;74.70
80274;DHT22;69576;51.902;-8.462;2024-03-06T04:28:39;12.60;74.70
80274;DHT22;69576;51.902;-8.462;2024-03-06T04:31:05;12.60;74.60
80274;DHT22;69576;51.902;-8.462;2024-03-06T04:33:31;12.60;74.60
80274;DHT22;69576;51.902;-8.462;2024-03-06T04:35:57;12.60;74.60
80274;DHT22;69576;51.902;-8.462;2024-03-06T04:38:22;12.60;74.80
80274;DHT22;69576;51.902;-8.462;2024-03-06T04:40:48;12.60;74.70
80274;DHT22;69576;51.902;-8.462;2024-03-06T04:43:14;12.60;74.50
80274;DHT22;69576;51.902;-8.462;2024-03-06T04:45:40;12.50;74.50
80274;DHT22;69576;51.902;-8.462;2024-03-06T04:48:06;12.50;74.60
80274;DHT22;69576;51.902;-8.462;2024-03-06T04:50:32;12.60;74.60
80274;DHT22;69576;51.902;-8.462;2024-03-06T04:52:58;12.50;74.80
80274;DHT22;69576;51.902;-8.462;2024-03-06T04:55:24;12.50;74.90
80274;DHT22;69576;51.902;-8.462;2024-03-06T04:57:51;12.60;75.10
80274;DHT22;69576;51.902;-8.462;2024-03-06T05:00:17;12.60;75.00
80274;DHT22;69576;51.902;-8.462;2024-03-06T05:02:44;12.60;74.70
80274;DHT22;69576;51.902;-8.462;2024-03-06T05:05:09;12.60;74.70
80274;DHT22;69576;51.902;-8.462;2024-03-06T05:07:37;12.60;74.50
80274;DHT22;69576;51.902;-8.462;2024-03-06T05:10:06;12.60;74.50
80274;DHT22;69576;51.902;-8.462;2024-03-06T05:12:33;12.60;74.60
80274;DHT22;69576;51.902;-8.462;2024-03-06T05:15:00;12.50;74.60
80274;DHT22;69576;51.902;-8.462;2024-03-06T05:17:25;12.50;74.80
80274;DHT22;69576;51.902;-8.462;2024-03-06T05:19:51;12.50;74.90
80274;DHT22;69576;51.902;-8.462;2024-03-06T05:22:18;12.50;75.00
80274;DHT22;69576;51.902;-8.462;2024-03-06T05:24:44;12.60;75.10
80274;DHT22;69576;51.902;-8.462;2024-03-06T05:27:10;12.50;75.30
80274;DHT22;69576;51.902;-8.462;2024-03-06T05:29:39;12.60;75.40
80274;DHT22;69576;51.902;-8.462;2024-03-06T05:32:05;12.60;75.30
80274;DHT22;69576;51.902;-8.462;2024-03-06T05:34:35;12.60;74.90
80274;DHT22;69576;51.902;-8.462;2024-03-06T05:37:01;12.60;75.00
80274;DHT22;69576;51.902;-8.462;2024-03-06T05:39:30;12.60;75.10
80274;DHT22;69576;51.902;-8.462;2024-03-06T05:41:59;12.60;75.10
80274;DHT22;69576;51.902;-8.462;2024-03-06T05:44:25;12.60;74.70
80274;DHT22;69576;51.902;-8.462;2024-03-06T05:46:52;12.60;74.70
80274;DHT22;69576;51.902;-8.462;2024-03-06T05:49:17;12.60;74.70
80274;DHT22;69576;51.902;-8.462;2024-03-06T05:51:43;12.50;74.90
80274;DHT22;69576;51.902;-8.462;2024-03-06T05:54:09;12.50;74.70
80274;DHT22;69576;51.902;-8.462;2024-03-06T05:56:35;12.50;74.80
80274;DHT22;69576;51.902;-8.462;2024-03-06T05:59:01;12.50;75.20
80274;DHT22;69576;51.902;-8.462;2024-03-06T06:01:30;12.50;75.30
80274;DHT22;69576;51.902;-8.462;2024-03-06T06:03:56;12.50;75.00
80274;DHT22;69576;51.902;-8.462;2024-03-06T06:06:22;12.50;74.90
80274;DHT22;69576;51.902;-8.462;2024-03-06T06:08:48;12.50;75.00
80274;DHT22;69576;51.902;-8.462;2024-03-06T06:11:14;12.50;75.00
80274;DHT22;69576;51.902;-8.462;2024-03-06T06:13:40;12.50;74.90
80274;DHT22;69576;51.902;-8.462;2024-03-06T06:16:08;12.50;75.00
80274;DHT22;69576;51.902;-8.462;2024-03-06T06:18:34;12.50;74.90
80274;DHT22;69576;51.902;-8.462;2024-03-06T06:20:59;12.50;74.90
80274;DHT22;69576;51.902;-8.462;2024-03-06T06:23:25;12.50;75.00
80274;DHT22;69576;51.902;-8.462;2024-03-06T06:25:51;12.50;74.90
80274;DHT22;69576;51.902;-8.462;2024-03-06T06:28:17;12.50;74.70
80274;DHT22;69576;51.902;-8.462;2024-03-06T06:30:43;12.50;75.00
80274;DHT22;69576;51.902;-8.462;2024-03-06T06:33:09;12.50;74.90
80274;DHT22;69576;51.902;-8.462;2024-03-06T06:35:35;12.50;74.90
80274;DHT22;69576;51.902;-8.462;2024-03-06T06:38:01;12.50;74.80
80274;DHT22;69576;51.902;-8.462;2024-03-06T06:40:27;12.50;75.10
80274;DHT22;69576;51.902;-8.462;2024-03-06T06:42:54;12.50;75.00
80274;DHT22;69576;51.902;-8.462;2024-03-06T06:45:20;12.50;75.30
80274;DHT22;69576;51.902;-8.462;2024-03-06T06:47:51;12.50;75.10
80274;DHT22;69576;51.902;-8.462;2024-03-06T06:50:17;12.50;75.30
80274;DHT22;69576;51.902;-8.462;2024-03-06T06:52:45;12.50;75.10
80274;DHT22;69576;51.902;-8.462;2024-03-06T06:55:10;12.50;75.20
80274;DHT22;69576;51.902;-8.462;2024-03-06T06:57:37;12.50;75.10
80274;DHT22;69576;51.902;-8.462;2024-03-06T07:00:04;12.50;75.10
80274;DHT22;69576;51.902;-8.462;2024-03-06T07:02:42;12.50;75.30
80274;DHT22;69576;51.902;-8.462;2024-03-06T07:05:09;12.50;75.40
80274;DHT22;69576;51.902;-8.462;2024-03-06T07:07:35;12.50;75.10
80274;DHT22;69576;51.902;-8.462;2024-03-06T07:10:02;12.50;75.10
80274;DHT22;69576;51.902;-8.462;2024-03-06T07:12:28;12.50;75.00
80274;DHT22;69576;51.902;-8.462;2024-03-06T07:14:54;12.50;75.00
80274;DHT22;69576;51.902;-8.462;2024-03-06T07:17:20;12.50;75.00
80274;DHT22;69576;51.902;-8.462;2024-03-06T07:19:46;12.50;75.00
80274;DHT22;69576;51.902;-8.462;2024-03-06T07:22:12;12.50;75.20
80274;DHT22;69576;51.902;-8.462;2024-03-06T07:24:38;12.50;75.30
80274;DHT22;69576;51.902;-8.462;2024-03-06T07:27:04;12.50;75.00
80274;DHT22;69576;51.902;-8.462;2024-03-06T07:29:30;12.50;74.90
80274;DHT22;69576;51.902;-8.462;2024-03-06T07:31:56;12.50;75.00
80274;DHT22;69576;51.902;-8.462;2024-03-06T07:34:22;12.60;74.80
80274;DHT22;69576;51.902;-8.462;2024-03-06T07:36:50;12.60;74.80
80274;DHT22;69576;51.902;-8.462;2024-03-06T07:39:16;12.70;74.70
80274;DHT22;69576;51.902;-8.462;2024-03-06T07:41:42;12.70;74.60
80274;DHT22;69576;51.902;-8.462;2024-03-06T07:44:08;12.70;74.70
80274;DHT22;69576;51.902;-8.462;2024-03-06T07:46:34;12.70;74.90
80274;DHT22;69576;51.902;-8.462;2024-03-06T07:49:01;12.70;74.70
80274;DHT22;69576;51.902;-8.462;2024-03-06T07:51:29;12.70;75.00
80274;DHT22;69576;51.902;-8.462;2024-03-06T07:53:55;12.80;74.80
80274;DHT22;69576;51.902;-8.462;2024-03-06T07:56:23;12.80;74.80
80274;DHT22;69576;51.902;-8.462;2024-03-06T07:58:49;12.80;75.60
80274;DHT22;69576;51.902;-8.462;2024-03-06T08:01:15;12.90;75.20
80274;DHT22;69576;51.902;-8.462;2024-03-06T08:03:41;12.90;74.70
80274;DHT22;69576;51.902;-8.462;2024-03-06T08:06:08;12.90;74.60
80274;DHT22;69576;51.902;-8.462;2024-03-06T08:08:39;12.90;74.50
80274;DHT22;69576;51.902;-8.462;2024-03-06T08:11:05;12.90;74.30
80274;DHT22;69576;51.902;-8.462;2024-03-06T08:13:31;12.90;74.70
80274;DHT22;69576;51.902;-8.462;2024-03-06T08:15:57;12.90;74.50
80274;DHT22;69576;51.902;-8.462;2024-03-06T08:18:23;12.90;74.50
80274;DHT22;69576;51.902;-8.462;2024-03-06T08:20:48;12.90;74.60
80274;DHT22;69576;51.902;-8.462;2024-03-06T08:23:14;12.90;74.30
80274;DHT22;69576;51.902;-8.462;2024-03-06T08:25:40;12.90;74.50
80274;DHT22;69576;51.902;-8.462;2024-03-06T08:28:06;12.90;74.70
80274;DHT22;69576;51.902;-8.462;2024-03-06T08:30:32;12.90;74.30
80274;DHT22;69576;51.902;-8.462;2024-03-06T08:32:58;12.90;74.60
80274;DHT22;69576;51.902;-8.462;2024-03-06T08:35:24;12.90;74.60
80274;DHT22;69576;51.902;-8.462;2024-03-06T08:37:50;12.90;75.10
80274;DHT22;69576;51.902;-8.462;2024-03-06T08:40:17;12.90;75.20
80274;DHT22;69576;51.902;-8.462;2024-03-06T08:42:49;13.00;75.20
80274;DHT22;69576;51.902;-8.462;2024-03-06T08:45:17;13.10;74.80
80274;DHT22;69576;51.902;-8.462;2024-03-06T08:47:44;13.10;74.70
80274;DHT22;69576;51.902;-8.462;2024-03-06T08:50:11;13.10;74.70
80274;DHT22;69576;51.902;-8.462;2024-03-06T08:52:38;13.10;74.30
80274;DHT22;69576;51.902;-8.462;2024-03-06T08:55:05;13.10;74.40
80274;DHT22;69576;51.902;-8.462;2024-03-06T08:57:34;13.10;74.50
80274;DHT22;69576;51.902;-8.462;2024-03-06T09:00:00;13.10;74.30
80274;DHT22;69576;51.902;-8.462;2024-03-06T09:02:26;13.10;74.20
80274;DHT22;69576;51.902;-8.462;2024-03-06T09:04:52;13.10;74.20
80274;DHT22;69576;51.902;-8.462;2024-03-06T09:07:19;13.10;74.40
80274;DHT22;69576;51.902;-8.462;2024-03-06T09:09:45;13.10;74.20
80274;DHT22;69576;51.902;-8.462;2024-03-06T09:12:12;13.10;74.10
80274;DHT22;69576;51.902;-8.462;2024-03-06T09:14:38;13.10;74.30
80274;DHT22;69576;51.902;-8.462;2024-03-06T09:17:05;13.10;74.20
80274;DHT22;69576;51.902;-8.462;2024-03-06T09:19:32;13.00;74.20
80274;DHT22;69576;51.902;-8.462;2024-03-06T09:21:58;13.10;74.20
80274;DHT22;69576;51.902;-8.462;2024-03-06T09:24:24;13.00;74.40
80274;DHT22;69576;51.902;-8.462;2024-03-06T09:26:51;13.10;74.50
80274;DHT22;69576;51.902;-8.462;2024-03-06T09:29:17;13.10;74.50
80274;DHT22;69576;51.902;-8.462;2024-03-06T09:31:43;13.10;74.80
80274;DHT22;69576;51.902;-8.462;2024-03-06T09:34:09;13.10;75.30
80274;DHT22;69576;51.902;-8.462;2024-03-06T09:36:39;13.10;75.20
80274;DHT22;69576;51.902;-8.462;2024-03-06T09:39:05;13.20;74.90
80274;DHT22;69576;51.902;-8.462;2024-03-06T09:41:31;13.10;74.80
80274;DHT22;69576;51.902;-8.462;2024-03-06T09:43:58;13.10;74.60
80274;DHT22;69576;51.902;-8.462;2024-03-06T09:46:24;13.20;74.70
80274;DHT22;69576;51.902;-8.462;2024-03-06T09:48:51;13.10;74.70
80274;DHT22;69576;51.902;-8.462;2024-03-06T09:51:17;13.20;74.90
80274;DHT22;69576;51.902;-8.462;2024-03-06T09:53:45;13.20;74.50
80274;DHT22;69576;51.902;-8.462;2024-03-06T09:56:15;13.30;74.50
80274;DHT22;69576;51.902;-8.462;2024-03-06T09:58:41;13.30;74.40
80274;DHT22;69576;51.902;-8.462;2024-03-06T10:01:07;13.20;74.40
80274;DHT22;69576;51.902;-8.462;2024-03-06T10:03:33;13.20;74.20
80274;DHT22;69576;51.902;-8.462;2024-03-06T10:06:02;13.10;74.30
80274;DHT22;69576;51.902;-8.462;2024-03-06T10:08:28;13.10;74.40
80274;DHT22;69576;51.902;-8.462;2024-03-06T10:10:54;13.20;74.30
80274;DHT22;69576;51.902;-8.462;2024-03-06T10:13:24;13.20;74.40
80274;DHT22;69576;51.902;-8.462;2024-03-06T10:16:00;13.20;74.50
80274;DHT22;69576;51.902;-8.462;2024-03-06T10:18:28;13.20;74.40
80274;DHT22;69576;51.902;-8.462;2024-03-06T10:20:54;13.30;74.20
80274;DHT22;69576;51.902;-8.462;2024-03-06T10:23:20;13.30;74.20
80274;DHT22;69576;51.902;-8.462;2024-03-06T10:25:49;13.30;74.20
80274;DHT22;69576;51.902;-8.462;2024-03-06T10:28:23;13.30;74.10
80274;DHT22;69576;51.902;-8.462;2024-03-06T10:30:50;13.30;74.20
80274;DHT22;69576;51.902;-8.462;2024-03-06T10:33:17;13.30;74.10
80274;DHT22;69576;51.902;-8.462;2024-03-06T10:35:47;13.30;74.20
80274;DHT22;69576;51.902;-8.462;2024-03-06T10:38:19;13.30;74.20
80274;DHT22;69576;51.902;-8.462;2024-03-06T10:40:45;13.30;74.50
80274;DHT22;69576;51.902;-8.462;2024-03-06T10:43:12;13.30;74.20
80274;DHT22;69576;51.902;-8.462;2024-03-06T10:45:49;13.30;74.10
80274;DHT22;69576;51.902;-8.462;2024-03-06T10:48:16;13.30;74.10
80274;DHT22;69576;51.902;-8.462;2024-03-06T10:50:44;13.30;74.20
80274;DHT22;69576;51.902;-8.462;2024-03-06T10:53:11;13.30;74.10
80274;DHT22;69576;51.902;-8.462;2024-03-06T10:55:38;13.30;74.00
80274;DHT22;69576;51.902;-8.462;2024-03-06T10:58:07;13.40;74.30
80274;DHT22;69576;51.902;-8.462;2024-03-06T11:00:39;13.40;74.00
80274;DHT22;69576;51.902;-8.462;2024-03-06T11:03:09;13.40;74.10
80274;DHT22;69576;51.902;-8.462;2024-03-06T11:05:44;13.40;74.00
80274;DHT22;69576;51.902;-8.462;2024-03-06T11:08:13;13.30;74.00
80274;DHT22;69576;51.902;-8.462;2024-03-06T11:10:41;13.30;73.90
80274;DHT22;69576;51.902;-8.462;2024-03-06T11:13:25;13.30;73.90
80274;DHT22;69576;51.902;-8.462;2024-03-06T11:15:56;13.30;73.90
80274;DHT22;69576;51.902;-8.462;2024-03-06T11:23:30;13.40;74.00
80274;DHT22;69576;51.902;-8.462;2024-03-06T11:26:03;13.40;73.90
80274;DHT22;69576;51.902;-8.462;2024-03-06T11:28:36;13.40;73.90
80274;DHT22;69576;51.902;-8.462;2024-03-06T11:31:08;13.50;74.30
80274;DHT22;69576;51.902;-8.462;2024-03-06T11:33:46;13.50;74.20
80274;DHT22;69576;51.902;-8.462;2024-03-06T11:36:26;13.50;74.10
80274;DHT22;69576;51.902;-8.462;2024-03-06T11:39:05;13.60;73.80
80274;DHT22;69576;51.902;-8.462;2024-03-06T11:41:49;13.50;73.70
80274;DHT22;69576;51.902;-8.462;2024-03-06T11:44:16;13.50;73.80
80274;DHT22;69576;51.902;-8.462;2024-03-06T11:49:21;13.60;73.80
80274;DHT22;69576;51.902;-8.462;2024-03-06T11:51:51;13.50;73.80
80274;DHT22;69576;51.902;-8.462;2024-03-06T11:54:17;13.50;73.60
80274;DHT22;69576;51.902;-8.462;2024-03-06T11:56:49;13.50;73.80
80274;DHT22;69576;51.902;-8.462;2024-03-06T11:59:17;13.50;73.70
80274;DHT22;69576;51.902;-8.462;2024-03-06T12:01:43;13.50;73.70
80274;DHT22;69576;51.902;-8.462;2024-03-06T12:04:10;13.50;73.70
80274;DHT22;69576;51.902;-8.462;2024-03-06T12:06:37;13.50;73.70
80274;DHT22;69576;51.902;-8.462;2024-03-06T12:09:03;13.50;73.60
80274;DHT22;69576;51.902;-8.462;2024-03-06T12:11:29;13.50;73.60
80274;DHT22;69576;51.902;-8.462;2024-03-06T12:13:56;13.50;73.70
80274;DHT22;69576;51.902;-8.462;2024-03-06T12:16:24;13.50;73.70
80274;DHT22;69576;51.902;-8.462;2024-03-06T12:18:57;13.50;73.80
80274;DHT22;69576;51.902;-8.462;2024-03-06T12:21:31;13.60;73.80
80274;DHT22;69576;51.902;-8.462;2024-03-06T12:24:07;13.60;73.60
80274;DHT22;69576;51.902;-8.462;2024-03-06T12:26:34;13.60;73.70
80274;DHT22;69576;51.902;-8.462;2024-03-06T12:29:07;13.60;73.80
80274;DHT22;69576;51.902;-8.462;2024-03-06T12:31:34;13.60;73.60
80274;DHT22;69576;51.902;-8.462;2024-03-06T12:34:00;13.70;73.60
80274;DHT22;69576;51.902;-8.462;2024-03-06T12:36:30;13.70;73.70
80274;DHT22;69576;51.902;-8.462;2024-03-06T12:38:59;13.70;73.50
80274;DHT22;69576;51.902;-8.462;2024-03-06T12:41:25;13.70;73.60
80274;DHT22;69576;51.902;-8.462;2024-03-06T12:43:52;13.70;73.40
80274;DHT22;69576;51.902;-8.462;2024-03-06T12:46:18;13.70;73.40
80274;DHT22;69576;51.902;-8.462;2024-03-06T12:48:45;13.70;73.40
80274;DHT22;69576;51.902;-8.462;2024-03-06T12:51:11;13.70;73.40
80274;DHT22;69576;51.902;-8.462;2024-03-06T12:53:36;13.70;73.40
80274;DHT22;69576;51.902;-8.462;2024-03-06T12:56:03;13.80;73.50
80274;DHT22;69576;51.902;-8.462;2024-03-06T12:58:29;13.90;73.50
80274;DHT22;69576;51.902;-8.462;2024-03-06T13:00:57;13.90;73.50
80274;DHT22;69576;51.902;-8.462;2024-03-06T13:03:27;13.90;73.40
80274;DHT22;69576;51.902;-8.462;2024-03-06T13:05:53;13.90;73.30
80274;DHT22;69576;51.902;-8.462;2024-03-06T13:08:19;13.90;73.10
80274;DHT22;69576;51.902;-8.462;2024-03-06T13:10:44;13.80;73.20
80274;DHT22;69576;51.902;-8.462;2024-03-06T13:13:10;13.80;73.30
80274;DHT22;69576;51.902;-8.462;2024-03-06T13:15:36;13.70;73.20
80274;DHT22;69576;51.902;-8.462;2024-03-06T13:18:03;13.80;73.40
80274;DHT22;69576;51.902;-8.462;2024-03-06T13:20:33;13.70;73.20
80274;DHT22;69576;51.902;-8.462;2024-03-06T13:23:02;13.70;73.40
80274;DHT22;69576;51.902;-8.462;2024-03-06T13:25:27;13.70;73.30
80274;DHT22;69576;51.902;-8.462;2024-03-06T13:27:54;13.70;73.20
80274;DHT22;69576;51.902;-8.462;2024-03-06T13:30:20;13.60;73.20
80274;DHT22;69576;51.902;-8.462;2024-03-06T13:32:46;13.60;73.40
80274;DHT22;69576;51.902;-8.462;2024-03-06T13:35:13;13.60;73.40
80274;DHT22;69576;51.902;-8.462;2024-03-06T13:37:43;13.60;73.50
80274;DHT22;69576;51.902;-8.462;2024-03-06T13:40:09;13.60;73.60
80274;DHT22;69576;51.902;-8.462;2024-03-06T13:42:42;13.70;73.50
80274;DHT22;69576;51.902;-8.462;2024-03-06T13:45:09;13.70;73.70
80274;DHT22;69576;51.902;-8.462;2024-03-06T13:47:38;13.70;73.50
80274;DHT22;69576;51.902;-8.462;2024-03-06T13:50:11;13.70;73.60
80274;DHT22;69576;51.902;-8.462;2024-03-06T13:52:37;13.70;73.50
80274;DHT22;69576;51.902;-8.462;2024-03-06T13:55:04;13.70;73.40
80274;DHT22;69576;51.902;-8.462;2024-03-06T13:57:33;13.70;73.50
80274;DHT22;69576;51.902;-8.462;2024-03-06T14:00:03;13.70;73.40
80274;DHT22;69576;51.902;-8.462;2024-03-06T14:02:31;13.60;73.50
80274;DHT22;69576;51.902;-8.462;2024-03-06T14:04:57;13.60;73.50
80274;DHT22;69576;51.902;-8.462;2024-03-06T14:07:23;13.60;73.50
80274;DHT22;69576;51.902;-8.462;2024-03-06T14:09:52;13.60;73.50
80274;DHT22;69576;51.902;-8.462;2024-03-06T14:12:18;13.60;73.50
80274;DHT22;69576;51.902;-8.462;2024-03-06T14:14:44;13.60;73.80
80274;DHT22;69576;51.902;-8.462;2024-03-06T14:17:11;13.60;73.70
80274;DHT22;69576;51.902;-8.462;2024-03-06T14:19:40;13.60;73.70
80274;DHT22;69576;51.902;-8.462;2024-03-06T14:22:09;13.60;73.60
80274;DHT22;69576;51.902;-8.462;2024-03-06T14:24:34;13.60;73.70
80274;DHT22;69576;51.902;-8.462;2024-03-06T14:27:01;13.60;73.70
80274;DHT22;69576;51.902;-8.462;2024-03-06T14:29:29;13.60;73.60
80274;DHT22;69576;51.902;-8.462;2024-03-06T14:31:54;13.60;73.70
80274;DHT22;69576;51.902;-8.462;2024-03-06T14:34:20;13.60;73.80
80274;DHT22;69576;51.902;-8.462;2024-03-06T14:36:51;13.60;73.70
80274;DHT22;69576;51.902;-8.462;2024-03-06T14:39:18;13.60;73.60
80274;DHT22;69576;51.902;-8.462;2024-03-06T14:41:44;13.60;73.60
80274;DHT22;69576;51.902;-8.462;2024-03-06T14:44:12;13.60;73.60
80274;DHT22;69576;51.902;-8.462;2024-03-06T14:46:43;13.60;73.70
80274;DHT22;69576;51.902;-8.462;2024-03-06T14:49:09;13.60;73.70
80274;DHT22;69576;51.902;-8.462;2024-03-06T14:51:38;13.60;73.70
80274;DHT22;69576;51.902;-8.462;2024-03-06T14:54:04;13.50;73.70
80274;DHT22;69576;51.902;-8.462;2024-03-06T14:56:32;13.60;73.80
80274;DHT22;69576;51.902;-8.462;2024-03-06T14:59:08;13.60;73.90
80274;DHT22;69576;51.902;-8.462;2024-03-06T15:01:34;13.60;74.00
80274;DHT22;69576;51.902;-8.462;2024-03-06T15:04:02;13.60;73.90
80274;DHT22;69576;51.902;-8.462;2024-03-06T15:06:28;13.60;73.90
80274;DHT22;69576;51.902;-8.462;2024-03-06T15:08:54;13.60;73.90
80274;DHT22;69576;51.902;-8.462;2024-03-06T15:11:21;13.60;73.90
80274;DHT22;69576;51.902;-8.462;2024-03-06T15:13:49;13.60;74.00
80274;DHT22;69576;51.902;-8.462;2024-03-06T15:16:15;13.60;73.90
80274;DHT22;69576;51.902;-8.462;2024-03-06T15:18:47;13.60;73.90
80274;DHT22;69576;51.902;-8.462;2024-03-06T15:21:14;13.60;73.80
80274;DHT22;69576;51.902;-8.462;2024-03-06T15:23:40;13.60;73.80